Terminal Aerodrome Forecast
Issued by NWS

Home | Current Version | Previous Version | Text Only | Print | Product List | Glossary On
Versions: 1 2 3 4 5 6 7 8 9 10 11 12 13 14 15 16 17
785
FTUS43 KDTX 092320
TAFDET
TAF
KDET 092320Z 1000/1024 28013G20KT 3SM -SN BR SCT018 OVC025
      TEMPO 1000/1002 1 1/2SM -SN BR BKN018 OVC025
     FM100400 29013KT P6SM BKN025
     FM101100 30013KT 6SM -SHSN OVC025
     FM101700 30013G20KT 4SM -SHSN OVC025
     FM102200 30013KT 6SM -SHSN OVC025=

USA.gov is the U.S. government's official web portal to all federal, state and local government web resources and services.